Terminal Aerodrome Forecast
Issued by NWS

Home | Current Version | Previous Version | Text Only | Print | Product List | Glossary On
Versions: 1 2 3 4 5 6 7 8 9 10 11 12 13 14 15 16 17 18 19
000
FTUS41 KBTV 280532
TAFMPV
TAF
KMPV 280532Z 2806/2906 33008G16KT 3SM TSRA BKN025CB OVC070
     FM280730 VRB03KT P6SM SCT100
     FM280900 00000KT 1/4SM FG VV002
     FM281300 00000KT P6SM SCT025
     FM281700 32006KT P6SM SCT080
     FM290000 00000KT P6SM SCT080=

USA.gov is the U.S. government's official web portal to all federal, state and local government web resources and services.